Fuat Reis I — TCVN9 — position and weather

sailwx.info

Track history (hours):
 
Tides and Currents Weather Stations Pressure Air Temp Water Temp Dewpoint Dewpoint Depression Visibility Wind Speed Wind Dir Waves Ship Positions

Fuat Reis I

Last reported at 2018-Jan-29 05:54 UTC. Time now 2018-Feb-20 05:34 UTC.
Position N 36°33' E 030°37'.
Warning: this ship's position is 21 days out of date.

Type: Fishing. MMSI: 271073040.

Date/timePositionNaut miles runAvg speedWind from/ knotsBaromVisibWave heightAir tempDewpointWater temp
2018-Jan-29 05:54N 36°33' E 030°37'3 8.4
2018-Jan-29 05:30N 36°36' E 030°37'4 7.8
2018-Jan-29 05:00N 36°40' E 030°36'4 8.3
2018-Jan-29 04:30N 36°44' E 030°36'4 8.4
2018-Jan-29 04:00N 36°48' E 030°35'0 0.7
2018-Jan-29 03:28N 36°48' E 030°35'0 0.0
2018-Jan-29 02:58N 36°48' E 030°35'0 0.0
2018-Jan-29 02:28N 36°48' E 030°35'0 0.0
2018-Jan-29 01:58N 36°48' E 030°35'0 0.0
2018-Jan-29 01:28N 36°48' E 030°35'0 0.0
2018-Jan-29 00:58N 36°48' E 030°35'0 0.0
2018-Jan-29 00:28N 36°48' E 030°35'0 0.0
2018-Jan-28 23:58N 36°48' E 030°35'0 0.0
2018-Jan-28 23:28N 36°48' E 030°35'0 0.0
2018-Jan-28 22:58N 36°48' E 030°35'0 0.0
2018-Jan-28 22:28N 36°48' E 030°35'0 0.0
2018-Jan-28 21:58N 36°48' E 030°35'0 0.0
2018-Jan-28 21:28N 36°48' E 030°35'0 0.0
2018-Jan-28 20:55N 36°48' E 030°35'0 0.0
2018-Jan-28 20:28N 36°48' E 030°35'0 0.0
2018-Jan-28 19:58N 36°48' E 030°35'0 0.0
2018-Jan-28 19:28N 36°48' E 030°35'0 0.0
2018-Jan-28 18:58N 36°48' E 030°35'0 0.0
2018-Jan-28 18:28N 36°48' E 030°35'0 0.0
2018-Jan-28 17:58N 36°48' E 030°35'0 0.0
2018-Jan-28 17:25N 36°48' E 030°35'0 0.0
2018-Jan-28 16:55N 36°48' E 030°35'0 0.0
2018-Jan-28 16:28N 36°48' E 030°35'0 0.0
2018-Jan-28 15:58N 36°48' E 030°35'0 0.0
2018-Jan-28 15:28N 36°48' E 030°35'0 0.0
2018-Jan-28 14:58N 36°48' E 030°35'0 0.0
2018-Jan-28 14:28N 36°48' E 030°35'0 0.0
2018-Jan-28 13:58N 36°48' E 030°35'0 0.0
2018-Jan-28 13:28N 36°48' E 030°35'0 0.0
2018-Jan-28 12:58N 36°48' E 030°35'0 0.0
2018-Jan-28 12:28N 36°48' E 030°35'0 0.0
2018-Jan-28 11:58N 36°48' E 030°35'0 0.0
2018-Jan-28 11:28N 36°48' E 030°35'0 0.0
2018-Jan-28 10:58N 36°48' E 030°35'0 0.0
2018-Jan-28 10:28N 36°48' E 030°35'0 0.0
2018-Jan-28 09:58N 36°48' E 030°35'0 0.0
2018-Jan-28 09:28N 36°48' E 030°35'0 0.0
2018-Jan-28 08:58N 36°48' E 030°35'0 0.0
2018-Jan-28 08:28N 36°48' E 030°35'0 0.0
2018-Jan-28 07:58N 36°48' E 030°35'0 0.0
2018-Jan-28 07:28N 36°48' E 030°35'0 0.0
2018-Jan-28 06:58N 36°48' E 030°35'0 0.0
2018-Jan-28 06:28N 36°48' E 030°35'0 0.0
2018-Jan-28 05:58N 36°48' E 030°35'0 0.0
2018-Jan-28 05:28N 36°48' E 030°35'0 0.0
2018-Jan-28 04:58N 36°48' E 030°35'0 0.0
2018-Jan-28 04:28N 36°48' E 030°35'0 0.0
2018-Jan-28 03:58N 36°48' E 030°35'0 0.0
2018-Jan-28 03:28N 36°48' E 030°35'0 0.0
2018-Jan-28 02:58N 36°48' E 030°35'0 0.0
2018-Jan-28 02:28N 36°48' E 030°35'0 0.0
2018-Jan-28 01:58N 36°48' E 030°35'0 0.0
2018-Jan-28 01:28N 36°48' E 030°35'0 0.0
2018-Jan-28 00:55N 36°48' E 030°35'0 0.0
2018-Jan-28 00:30N 36°48' E 030°35'3 5.6
2018-Jan-28 00:00N 36°45' E 030°36'4 7.4
2018-Jan-27 23:30N 36°42' E 030°37'4 7.3
2018-Jan-27 23:00N 36°38' E 030°38'1 2.0
2018-Jan-27 22:30N 36°37' E 030°37'1 2.4
2018-Jan-27 22:00N 36°38' E 030°36'1 2.3
2018-Jan-27 21:30N 36°39' E 030°36'2 3.1
2018-Jan-27 20:59N 36°41' E 030°38'0 0.3
2018-Jan-27 20:29N 36°41' E 030°38'0 0.5
2018-Jan-27 20:00N 36°40' E 030°38'1 2.3
2018-Jan-27 19:30N 36°40' E 030°37'1 2.4
2018-Jan-27 19:00N 36°38' E 030°36'1 3.0
2018-Jan-27 18:30N 36°37' E 030°37'0 0.8
2018-Jan-27 18:00N 36°37' E 030°37'1 2.3
2018-Jan-27 17:30N 36°38' E 030°36'1 2.4
2018-Jan-27 16:59N 36°40' E 030°37'1 1.3
2018-Jan-27 16:30N 36°40' E 030°37'1 2.5
2018-Jan-27 16:00N 36°39' E 030°36'1 2.4
2018-Jan-27 15:30N 36°38' E 030°36'3 6.0
2018-Jan-27 15:00N 36°37' E 030°40'8 1.3
2018-Jan-27 08:20N 36°45' E 030°44'1 2.1
2018-Jan-27 07:59N 36°46' E 030°44'1 2.3
2018-Jan-27 07:30N 36°47' E 030°44'1 2.1
2018-Jan-27 07:00N 36°47' E 030°45'2 3.7
2018-Jan-27 06:30N 36°48' E 030°48'0 0.5
2018-Jan-27 06:00N 36°48' E 030°48'1 1.3
2018-Jan-27 05:30N 36°49' E 030°48'1 1.9
2018-Jan-27 05:00N 36°48' E 030°47'0 0.9
2018-Jan-27 04:30N 36°48' E 030°48'1 2.4
2018-Jan-27 03:58N 36°49' E 030°49'1 2.3
2018-Jan-27 03:29N 36°49' E 030°51'1 2.6
2018-Jan-27 03:00N 36°49' E 030°52'3 5.2
2018-Jan-27 02:30N 36°49' E 030°49'0 0.9
2018-Jan-27 02:00N 36°49' E 030°49'1 2.4
2018-Jan-27 01:30N 36°49' E 030°50'1 2.4
2018-Jan-27 00:55N 36°49' E 030°52'1 2.3
2018-Jan-27 00:27N 36°49' E 030°53'  
2018-Jan-24 00:47N 36°49' E 030°55'2 2.7
2018-Jan-24 00:14N 36°49' E 030°53'1 2.7
2018-Jan-24 00:00N 36°49' E 030°52'1 2.8
2018-Jan-23 23:30N 36°49' E 030°51'1 1.2
2018-Jan-23 23:01N 36°48' E 030°51'1 2.1
2018-Jan-23 22:30N 36°49' E 030°52'2 0.1
2018-Jan-23 04:32N 36°49' E 030°49'0 1.8
2018-Jan-23 04:29N 36°48' E 030°49'3 6.7
2018-Jan-23 04:00N 36°49' E 030°45'4 7.1
2018-Jan-23 03:30N 36°49' E 030°40'3 7.0
2018-Jan-23 03:00N 36°48' E 030°36'1 2.3
2018-Jan-23 02:29N 36°48' E 030°35'0 0.0
2018-Jan-23 01:56N 36°48' E 030°35'0 0.0
2018-Jan-23 01:29N 36°48' E 030°35'0 0.0
2018-Jan-23 00:59N 36°48' E 030°35'0 0.0
2018-Jan-23 00:29N 36°48' E 030°35'0 0.0
2018-Jan-22 23:59N 36°48' E 030°35'0 0.0
2018-Jan-22 23:29N 36°48' E 030°35'0 0.0
2018-Jan-22 22:59N 36°48' E 030°35'0 0.0
2018-Jan-22 22:29N 36°48' E 030°35'0 0.0
2018-Jan-22 21:59N 36°48' E 030°35'0 0.0
2018-Jan-22 21:29N 36°48' E 030°35'0 0.0
2018-Jan-22 20:59N 36°48' E 030°35'0 0.0
2018-Jan-22 20:29N 36°48' E 030°35'0 0.0
2018-Jan-22 19:59N 36°48' E 030°35'0 0.0
2018-Jan-22 19:29N 36°48' E 030°35'0 0.0
2018-Jan-22 18:59N 36°48' E 030°35'0 0.0
2018-Jan-22 18:29N 36°48' E 030°35'0 0.0
2018-Jan-22 17:59N 36°48' E 030°35'0 0.0
2018-Jan-22 17:26N 36°48' E 030°35'0 0.0
2018-Jan-22 16:59N 36°48' E 030°35'0 0.0
2018-Jan-22 16:29N 36°48' E 030°35'0 0.0
2018-Jan-22 15:59N 36°48' E 030°35'0 0.0
2018-Jan-22 15:29N 36°48' E 030°35'0 0.0
2018-Jan-22 14:59N 36°48' E 030°35'0 0.0
2018-Jan-22 14:29N 36°48' E 030°35'0 0.0
2018-Jan-22 13:59N 36°48' E 030°35'0 0.0
2018-Jan-22 13:29N 36°48' E 030°35'0 0.0
2018-Jan-22 12:59N 36°48' E 030°35'0 0.0
2018-Jan-22 12:29N 36°48' E 030°35'0 0.0
2018-Jan-22 11:59N 36°48' E 030°35'0 0.0
2018-Jan-22 11:29N 36°48' E 030°35'0 0.0
2018-Jan-22 10:59N 36°48' E 030°35'0 0.0
2018-Jan-22 10:29N 36°48' E 030°35'0 0.0
2018-Jan-22 09:59N 36°48' E 030°35'0 0.0
2018-Jan-22 09:26N 36°48' E 030°35'0 0.0
2018-Jan-22 08:59N 36°48' E 030°35'0 0.0
2018-Jan-22 08:29N 36°48' E 030°35'0 0.0
2018-Jan-22 07:56N 36°48' E 030°35'0 0.0
2018-Jan-22 07:29N 36°48' E 030°35'0 0.0
2018-Jan-22 06:59N 36°48' E 030°35'0 0.0
2018-Jan-22 06:30N 36°48' E 030°35'0 0.0
2018-Jan-22 05:59N 36°48' E 030°35'0 0.0
2018-Jan-22 05:29N 36°48' E 030°35'0 0.0
2018-Jan-22 04:59N 36°48' E 030°35'0 0.0
2018-Jan-22 04:29N 36°48' E 030°35'0 0.0
2018-Jan-22 03:56N 36°48' E 030°35'0 0.0
2018-Jan-22 03:29N 36°48' E 030°35'0 0.0
2018-Jan-22 02:59N 36°48' E 030°35'0 0.0
2018-Jan-22 02:27N 36°48' E 030°35'0 0.0
2018-Jan-22 01:59N 36°48' E 030°35'0 0.0
2018-Jan-22 01:30N 36°48' E 030°35'0 0.0
2018-Jan-22 01:00N 36°48' E 030°35'0 0.0
2018-Jan-22 00:30N 36°48' E 030°35'0 0.0
2018-Jan-22 00:00N 36°48' E 030°35'0 0.0
2018-Jan-21 23:03N 36°48' E 030°35'0 0.0
2018-Jan-21 22:54N 36°48' E 030°35'0 0.0
2018-Jan-21 22:30N 36°48' E 030°35'0 0.0
2018-Jan-21 22:00N 36°48' E 030°35'0 0.0
2018-Jan-21 21:30N 36°48' E 030°35'0 0.0
2018-Jan-21 21:00N 36°48' E 030°35'0 0.0
2018-Jan-21 20:30N 36°48' E 030°35'0 0.0
2018-Jan-21 20:00N 36°48' E 030°35'0 0.0
2018-Jan-21 19:27N 36°48' E 030°35'0 0.0
2018-Jan-21 19:00N 36°48' E 030°35'0 0.0
2018-Jan-21 18:30N 36°48' E 030°35'0 0.0
2018-Jan-21 18:00N 36°48' E 030°35'0 0.0
2018-Jan-21 17:30N 36°48' E 030°35'0 0.0
2018-Jan-21 17:00N 36°48' E 030°35'0 0.0
2018-Jan-21 16:30N 36°48' E 030°35'0 0.0
2018-Jan-21 16:00N 36°48' E 030°35'0 0.0
2018-Jan-21 15:30N 36°48' E 030°35'0 0.0
2018-Jan-21 15:00N 36°48' E 030°35'2 3.1
2018-Jan-21 14:29N 36°48' E 030°37'4 7.6
2018-Jan-21 14:00N 36°47' E 030°41'4 7.5
2018-Jan-21 13:30N 36°45' E 030°45'1 2.4
2018-Jan-21 13:00N 36°44' E 030°46'0 0.3
2018-Jan-21 12:30N 36°44' E 030°46'1 2.0
2018-Jan-21 12:00N 36°44' E 030°45'1 2.1
2018-Jan-21 11:30N 36°45' E 030°44'1 2.4
2018-Jan-21 11:00N 36°47' E 030°44'1 2.3
2018-Jan-21 10:30N 36°47' E 030°45'1 2.2
2018-Jan-21 10:00N 36°48' E 030°47'0 0.8
2018-Jan-21 09:30N 36°47' E 030°47'0 0.5
2018-Jan-21 09:00N 36°48' E 030°47'0 0.8
2018-Jan-21 08:30N 36°48' E 030°47'0 0.1
2018-Jan-21 08:00N 36°48' E 030°47'1 2.8
2018-Jan-21 07:30N 36°48' E 030°49'1 2.0
2018-Jan-21 06:58N 36°49' E 030°48'1 1.6
2018-Jan-21 06:30N 36°49' E 030°49'1 2.7
2018-Jan-21 06:00N 36°49' E 030°51'1 2.6
2018-Jan-21 05:30N 36°49' E 030°52'1 2.6
2018-Jan-21 04:56N 36°49' E 030°54'0 0.0
2018-Jan-20 20:34N 36°49' E 030°54'0 2.4
2018-Jan-20 20:29N 36°49' E 030°53'1 2.4
2018-Jan-20 19:53N 36°49' E 030°51'1 2.4
2018-Jan-20 19:30N 36°49' E 030°50'1 2.4
2018-Jan-20 19:00N 36°49' E 030°49'3 5.2
2018-Jan-20 18:30N 36°48' E 030°46'4 7.6
2018-Jan-20 17:59N 36°48' E 030°41'4 7.7
2018-Jan-20 17:30N 36°48' E 030°36'1 2.6
2018-Jan-20 17:00N 36°48' E 030°35'0 0.0
2018-Jan-20 16:30N 36°48' E 030°35'0 0.0
2018-Jan-20 16:00N 36°48' E 030°35'3 5.5
2018-Jan-20 15:31N 36°48' E 030°38'4 8.2
2018-Jan-20 15:00N 36°48' E 030°43'4 7.6
2018-Jan-20 14:30N 36°48' E 030°48'0 0.2
2018-Jan-20 14:00N 36°48' E 030°48'1 1.8
2018-Jan-20 13:29N 36°48' E 030°47'1 2.2
2018-Jan-20 13:00N 36°47' E 030°46'1 2.2
2018-Jan-20 12:30N 36°47' E 030°45'1 2.0
2018-Jan-20 12:00N 36°46' E 030°45'1 2.0
2018-Jan-20 11:30N 36°45' E 030°45'1 2.1
2018-Jan-20 11:00N 36°44' E 030°46'1 2.1
2018-Jan-20 10:29N 36°43' E 030°46'0 0.5
2018-Jan-20 10:00N 36°43' E 030°46'1 1.4
2018-Jan-20 09:30N 36°44' E 030°46'1 2.1
2018-Jan-20 09:00N 36°44' E 030°45'1 2.3
2018-Jan-20 08:29N 36°45' E 030°44'1 1.8
2018-Jan-20 08:00N 36°46' E 030°44'1 2.3
2018-Jan-20 07:30N 36°47' E 030°45'1 2.3
2018-Jan-20 07:00N 36°47' E 030°46'1 2.2
2018-Jan-20 06:30N 36°48' E 030°47'1 1.6
2018-Jan-20 06:00N 36°48' E 030°47'0 0.1
2018-Jan-20 05:30N 36°48' E 030°47'2 3.2
2018-Jan-20 05:00N 36°49' E 030°49'1 2.4
2018-Jan-20 04:30N 36°49' E 030°50'2 4.4
2018-Jan-20 03:58N 36°48' E 030°48'1 1.5
2018-Jan-20 03:30N 36°49' E 030°48'1 2.4
2018-Jan-20 03:00N 36°49' E 030°50'1 2.5
2018-Jan-20 02:27N 36°49' E 030°52'1 2.3
2018-Jan-20 01:59N 36°49' E 030°53'1 2.4
2018-Jan-20 01:28N 36°49' E 030°54'2 2.4
2018-Jan-20 00:41N 36°49' E 030°57'1 2.5
2018-Jan-20 00:20N 36°49' E 030°58'3 0.5
2018-Jan-19 18:03N 36°49' E 030°54'0 2.6
2018-Jan-19 17:57N 36°49' E 030°53'1 2.6
2018-Jan-19 17:29N 36°49' E 030°52'1 2.5
2018-Jan-19 17:00N 36°49' E 030°50'1 2.6
2018-Jan-19 16:30N 36°49' E 030°49'4 7.3
2018-Jan-19 16:00N 36°48' E 030°44'4 7.8
2018-Jan-19 15:30N 36°49' E 030°39'4 7.3
2018-Jan-19 14:59N 36°48' E 030°35'0 0.0
2018-Jan-19 14:24N 36°48' E 030°35'0 0.0
2018-Jan-19 13:51N 36°48' E 030°35'0 0.0
2018-Jan-19 13:30N 36°48' E 030°35'0 0.0
2018-Jan-19 13:00N 36°48' E 030°35'0 0.0
2018-Jan-19 12:24N 36°48' E 030°35'0 0.0
2018-Jan-19 11:51N 36°48' E 030°35'0 0.0
2018-Jan-19 11:30N 36°48' E 030°35'0 0.0
2018-Jan-19 10:51N 36°48' E 030°35'0 0.0
2018-Jan-19 10:27N 36°48' E 030°35'0 0.0
2018-Jan-19 10:00N 36°48' E 030°35'0 0.0
2018-Jan-19 09:30N 36°48' E 030°35'0 0.0
2018-Jan-19 08:57N 36°48' E 030°35'0 0.0
2018-Jan-19 08:30N 36°48' E 030°35'0 0.0
2018-Jan-19 08:00N 36°48' E 030°35'0 0.0
2018-Jan-19 07:30N 36°48' E 030°35'0 0.0
2018-Jan-19 06:57N 36°48' E 030°35'0 0.0
2018-Jan-19 06:27N 36°48' E 030°35'0 0.0
2018-Jan-19 06:00N 36°48' E 030°35'  
Track history (hours):
 
Tides and Currents Weather Stations Pressure Air Temp Water Temp Dewpoint Dewpoint Depression Visibility Wind Speed Wind Dir Waves Ship Positions

Fuat Reis I

Last reported at 2018-Jan-29 05:54 UTC. Time now 2018-Feb-20 05:34 UTC.
Position N 36°33' E 030°37'.
Warning: this ship's position is 21 days out of date.

Type: Fishing. MMSI: 271073040.

Date/timePositionNaut miles runAvg speedWind from/ knotsBaromVisibWave heightAir tempDewpointWater temp
2018-Jan-29 05:54N 36°33' E 030°37'3 8.4
2018-Jan-29 05:30N 36°36' E 030°37'4 7.8
2018-Jan-29 05:00N 36°40' E 030°36'4 8.3
2018-Jan-29 04:30N 36°44' E 030°36'4 8.4
2018-Jan-29 04:00N 36°48' E 030°35'0 0.7
2018-Jan-29 03:28N 36°48' E 030°35'0 0.0
2018-Jan-29 02:58N 36°48' E 030°35'0 0.0
2018-Jan-29 02:28N 36°48' E 030°35'0 0.0
2018-Jan-29 01:58N 36°48' E 030°35'0 0.0
2018-Jan-29 01:28N 36°48' E 030°35'0 0.0
2018-Jan-29 00:58N 36°48' E 030°35'0 0.0
2018-Jan-29 00:28N 36°48' E 030°35'0 0.0
2018-Jan-28 23:58N 36°48' E 030°35'0 0.0
2018-Jan-28 23:28N 36°48' E 030°35'0 0.0
2018-Jan-28 22:58N 36°48' E 030°35'0 0.0
2018-Jan-28 22:28N 36°48' E 030°35'0 0.0
2018-Jan-28 21:58N 36°48' E 030°35'0 0.0
2018-Jan-28 21:28N 36°48' E 030°35'0 0.0
2018-Jan-28 20:55N 36°48' E 030°35'0 0.0
2018-Jan-28 20:28N 36°48' E 030°35'0 0.0
2018-Jan-28 19:58N 36°48' E 030°35'0 0.0
2018-Jan-28 19:28N 36°48' E 030°35'0 0.0
2018-Jan-28 18:58N 36°48' E 030°35'0 0.0
2018-Jan-28 18:28N 36°48' E 030°35'0 0.0
2018-Jan-28 17:58N 36°48' E 030°35'0 0.0
2018-Jan-28 17:25N 36°48' E 030°35'0 0.0
2018-Jan-28 16:55N 36°48' E 030°35'0 0.0
2018-Jan-28 16:28N 36°48' E 030°35'0 0.0
2018-Jan-28 15:58N 36°48' E 030°35'0 0.0
2018-Jan-28 15:28N 36°48' E 030°35'0 0.0
2018-Jan-28 14:58N 36°48' E 030°35'0 0.0
2018-Jan-28 14:28N 36°48' E 030°35'0 0.0
2018-Jan-28 13:58N 36°48' E 030°35'0 0.0
2018-Jan-28 13:28N 36°48' E 030°35'0 0.0
2018-Jan-28 12:58N 36°48' E 030°35'0 0.0
2018-Jan-28 12:28N 36°48' E 030°35'0 0.0
2018-Jan-28 11:58N 36°48' E 030°35'0 0.0
2018-Jan-28 11:28N 36°48' E 030°35'0 0.0
2018-Jan-28 10:58N 36°48' E 030°35'0 0.0
2018-Jan-28 10:28N 36°48' E 030°35'0 0.0
2018-Jan-28 09:58N 36°48' E 030°35'0 0.0
2018-Jan-28 09:28N 36°48' E 030°35'0 0.0
2018-Jan-28 08:58N 36°48' E 030°35'0 0.0
2018-Jan-28 08:28N 36°48' E 030°35'0 0.0
2018-Jan-28 07:58N 36°48' E 030°35'0 0.0
2018-Jan-28 07:28N 36°48' E 030°35'0 0.0
2018-Jan-28 06:58N 36°48' E 030°35'0 0.0
2018-Jan-28 06:28N 36°48' E 030°35'0 0.0
2018-Jan-28 05:58N 36°48' E 030°35'0 0.0
2018-Jan-28 05:28N 36°48' E 030°35'0 0.0
2018-Jan-28 04:58N 36°48' E 030°35'0 0.0
2018-Jan-28 04:28N 36°48' E 030°35'0 0.0
2018-Jan-28 03:58N 36°48' E 030°35'0 0.0
2018-Jan-28 03:28N 36°48' E 030°35'0 0.0
2018-Jan-28 02:58N 36°48' E 030°35'0 0.0
2018-Jan-28 02:28N 36°48' E 030°35'0 0.0
2018-Jan-28 01:58N 36°48' E 030°35'0 0.0
2018-Jan-28 01:28N 36°48' E 030°35'0 0.0
2018-Jan-28 00:55N 36°48' E 030°35'0 0.0
2018-Jan-28 00:30N 36°48' E 030°35'3 5.6
2018-Jan-28 00:00N 36°45' E 030°36'4 7.4
2018-Jan-27 23:30N 36°42' E 030°37'4 7.3
2018-Jan-27 23:00N 36°38' E 030°38'1 2.0
2018-Jan-27 22:30N 36°37' E 030°37'1 2.4
2018-Jan-27 22:00N 36°38' E 030°36'1 2.3
2018-Jan-27 21:30N 36°39' E 030°36'2 3.1
2018-Jan-27 20:59N 36°41' E 030°38'0 0.3
2018-Jan-27 20:29N 36°41' E 030°38'0 0.5
2018-Jan-27 20:00N 36°40' E 030°38'1 2.3
2018-Jan-27 19:30N 36°40' E 030°37'1 2.4
2018-Jan-27 19:00N 36°38' E 030°36'1 3.0
2018-Jan-27 18:30N 36°37' E 030°37'0 0.8
2018-Jan-27 18:00N 36°37' E 030°37'1 2.3
2018-Jan-27 17:30N 36°38' E 030°36'1 2.4
2018-Jan-27 16:59N 36°40' E 030°37'1 1.3
2018-Jan-27 16:30N 36°40' E 030°37'1 2.5
2018-Jan-27 16:00N 36°39' E 030°36'1 2.4
2018-Jan-27 15:30N 36°38' E 030°36'3 6.0
2018-Jan-27 15:00N 36°37' E 030°40'8 1.3
2018-Jan-27 08:20N 36°45' E 030°44'1 2.1
2018-Jan-27 07:59N 36°46' E 030°44'1 2.3
2018-Jan-27 07:30N 36°47' E 030°44'1 2.1
2018-Jan-27 07:00N 36°47' E 030°45'2 3.7
2018-Jan-27 06:30N 36°48' E 030°48'0 0.5
2018-Jan-27 06:00N 36°48' E 030°48'1 1.3
2018-Jan-27 05:30N 36°49' E 030°48'1 1.9
2018-Jan-27 05:00N 36°48' E 030°47'0 0.9
2018-Jan-27 04:30N 36°48' E 030°48'1 2.4
2018-Jan-27 03:58N 36°49' E 030°49'1 2.3
2018-Jan-27 03:29N 36°49' E 030°51'1 2.6
2018-Jan-27 03:00N 36°49' E 030°52'3 5.2
2018-Jan-27 02:30N 36°49' E 030°49'0 0.9
2018-Jan-27 02:00N 36°49' E 030°49'1 2.4
2018-Jan-27 01:30N 36°49' E 030°50'1 2.4
2018-Jan-27 00:55N 36°49' E 030°52'1 2.3
2018-Jan-27 00:27N 36°49' E 030°53'  
2018-Jan-24 00:47N 36°49' E 030°55'2 2.7
2018-Jan-24 00:14N 36°49' E 030°53'1 2.7
2018-Jan-24 00:00N 36°49' E 030°52'1 2.8
2018-Jan-23 23:30N 36°49' E 030°51'1 1.2
2018-Jan-23 23:01N 36°48' E 030°51'1 2.1
2018-Jan-23 22:30N 36°49' E 030°52'2 0.1
2018-Jan-23 04:32N 36°49' E 030°49'0 1.8
2018-Jan-23 04:29N 36°48' E 030°49'3 6.7
2018-Jan-23 04:00N 36°49' E 030°45'4 7.1
2018-Jan-23 03:30N 36°49' E 030°40'3 7.0
2018-Jan-23 03:00N 36°48' E 030°36'1 2.3
2018-Jan-23 02:29N 36°48' E 030°35'0 0.0
2018-Jan-23 01:56N 36°48' E 030°35'0 0.0
2018-Jan-23 01:29N 36°48' E 030°35'0 0.0
2018-Jan-23 00:59N 36°48' E 030°35'0 0.0
2018-Jan-23 00:29N 36°48' E 030°35'0 0.0
2018-Jan-22 23:59N 36°48' E 030°35'0 0.0
2018-Jan-22 23:29N 36°48' E 030°35'0 0.0
2018-Jan-22 22:59N 36°48' E 030°35'0 0.0
2018-Jan-22 22:29N 36°48' E 030°35'0 0.0
2018-Jan-22 21:59N 36°48' E 030°35'0 0.0
2018-Jan-22 21:29N 36°48' E 030°35'0 0.0
2018-Jan-22 20:59N 36°48' E 030°35'0 0.0
2018-Jan-22 20:29N 36°48' E 030°35'0 0.0
2018-Jan-22 19:59N 36°48' E 030°35'0 0.0
2018-Jan-22 19:29N 36°48' E 030°35'0 0.0
2018-Jan-22 18:59N 36°48' E 030°35'0 0.0
2018-Jan-22 18:29N 36°48' E 030°35'0 0.0
2018-Jan-22 17:59N 36°48' E 030°35'0 0.0
2018-Jan-22 17:26N 36°48' E 030°35'0 0.0
2018-Jan-22 16:59N 36°48' E 030°35'0 0.0
2018-Jan-22 16:29N 36°48' E 030°35'0 0.0
2018-Jan-22 15:59N 36°48' E 030°35'0 0.0
2018-Jan-22 15:29N 36°48' E 030°35'0 0.0
2018-Jan-22 14:59N 36°48' E 030°35'0 0.0
2018-Jan-22 14:29N 36°48' E 030°35'0 0.0
2018-Jan-22 13:59N 36°48' E 030°35'0 0.0
2018-Jan-22 13:29N 36°48' E 030°35'0 0.0
2018-Jan-22 12:59N 36°48' E 030°35'0 0.0
2018-Jan-22 12:29N 36°48' E 030°35'0 0.0
2018-Jan-22 11:59N 36°48' E 030°35'0 0.0
2018-Jan-22 11:29N 36°48' E 030°35'0 0.0
2018-Jan-22 10:59N 36°48' E 030°35'0 0.0
2018-Jan-22 10:29N 36°48' E 030°35'0 0.0
2018-Jan-22 09:59N 36°48' E 030°35'0 0.0
2018-Jan-22 09:26N 36°48' E 030°35'0 0.0
2018-Jan-22 08:59N 36°48' E 030°35'0 0.0
2018-Jan-22 08:29N 36°48' E 030°35'0 0.0
2018-Jan-22 07:56N 36°48' E 030°35'0 0.0
2018-Jan-22 07:29N 36°48' E 030°35'0 0.0
2018-Jan-22 06:59N 36°48' E 030°35'0 0.0
2018-Jan-22 06:30N 36°48' E 030°35'0 0.0
2018-Jan-22 05:59N 36°48' E 030°35'0 0.0
2018-Jan-22 05:29N 36°48' E 030°35'0 0.0
2018-Jan-22 04:59N 36°48' E 030°35'0 0.0
2018-Jan-22 04:29N 36°48' E 030°35'0 0.0
2018-Jan-22 03:56N 36°48' E 030°35'0 0.0
2018-Jan-22 03:29N 36°48' E 030°35'0 0.0
2018-Jan-22 02:59N 36°48' E 030°35'0 0.0
2018-Jan-22 02:27N 36°48' E 030°35'0 0.0
2018-Jan-22 01:59N 36°48' E 030°35'0 0.0
2018-Jan-22 01:30N 36°48' E 030°35'0 0.0
2018-Jan-22 01:00N 36°48' E 030°35'0 0.0
2018-Jan-22 00:30N 36°48' E 030°35'0 0.0
2018-Jan-22 00:00N 36°48' E 030°35'0 0.0
2018-Jan-21 23:03N 36°48' E 030°35'0 0.0
2018-Jan-21 22:54N 36°48' E 030°35'0 0.0
2018-Jan-21 22:30N 36°48' E 030°35'0 0.0
2018-Jan-21 22:00N 36°48' E 030°35'0 0.0
2018-Jan-21 21:30N 36°48' E 030°35'0 0.0
2018-Jan-21 21:00N 36°48' E 030°35'0 0.0
2018-Jan-21 20:30N 36°48' E 030°35'0 0.0
2018-Jan-21 20:00N 36°48' E 030°35'0 0.0
2018-Jan-21 19:27N 36°48' E 030°35'0 0.0
2018-Jan-21 19:00N 36°48' E 030°35'0 0.0
2018-Jan-21 18:30N 36°48' E 030°35'0 0.0
2018-Jan-21 18:00N 36°48' E 030°35'0 0.0
2018-Jan-21 17:30N 36°48' E 030°35'0 0.0
2018-Jan-21 17:00N 36°48' E 030°35'0 0.0
2018-Jan-21 16:30N 36°48' E 030°35'0 0.0
2018-Jan-21 16:00N 36°48' E 030°35'0 0.0
2018-Jan-21 15:30N 36°48' E 030°35'0 0.0
2018-Jan-21 15:00N 36°48' E 030°35'2 3.1
2018-Jan-21 14:29N 36°48' E 030°37'4 7.6
2018-Jan-21 14:00N 36°47' E 030°41'4 7.5
2018-Jan-21 13:30N 36°45' E 030°45'1 2.4
2018-Jan-21 13:00N 36°44' E 030°46'0 0.3
2018-Jan-21 12:30N 36°44' E 030°46'1 2.0
2018-Jan-21 12:00N 36°44' E 030°45'1 2.1
2018-Jan-21 11:30N 36°45' E 030°44'1 2.4
2018-Jan-21 11:00N 36°47' E 030°44'1 2.3
2018-Jan-21 10:30N 36°47' E 030°45'1 2.2
2018-Jan-21 10:00N 36°48' E 030°47'0 0.8
2018-Jan-21 09:30N 36°47' E 030°47'0 0.5
2018-Jan-21 09:00N 36°48' E 030°47'0 0.8
2018-Jan-21 08:30N 36°48' E 030°47'0 0.1
2018-Jan-21 08:00N 36°48' E 030°47'1 2.8
2018-Jan-21 07:30N 36°48' E 030°49'1 2.0
2018-Jan-21 06:58N 36°49' E 030°48'1 1.6
2018-Jan-21 06:30N 36°49' E 030°49'1 2.7
2018-Jan-21 06:00N 36°49' E 030°51'1 2.6
2018-Jan-21 05:30N 36°49' E 030°52'1 2.6
2018-Jan-21 04:56N 36°49' E 030°54'0 0.0
2018-Jan-20 20:34N 36°49' E 030°54'0 2.4
2018-Jan-20 20:29N 36°49' E 030°53'1 2.4
2018-Jan-20 19:53N 36°49' E 030°51'1 2.4
2018-Jan-20 19:30N 36°49' E 030°50'1 2.4
2018-Jan-20 19:00N 36°49' E 030°49'3 5.2
2018-Jan-20 18:30N 36°48' E 030°46'4 7.6
2018-Jan-20 17:59N 36°48' E 030°41'4 7.7
2018-Jan-20 17:30N 36°48' E 030°36'1 2.6
2018-Jan-20 17:00N 36°48' E 030°35'0 0.0
2018-Jan-20 16:30N 36°48' E 030°35'0 0.0
2018-Jan-20 16:00N 36°48' E 030°35'3 5.5
2018-Jan-20 15:31N 36°48' E 030°38'4 8.2
2018-Jan-20 15:00N 36°48' E 030°43'4 7.6
2018-Jan-20 14:30N 36°48' E 030°48'0 0.2
2018-Jan-20 14:00N 36°48' E 030°48'1 1.8
2018-Jan-20 13:29N 36°48' E 030°47'1 2.2
2018-Jan-20 13:00N 36°47' E 030°46'1 2.2
2018-Jan-20 12:30N 36°47' E 030°45'1 2.0
2018-Jan-20 12:00N 36°46' E 030°45'1 2.0
2018-Jan-20 11:30N 36°45' E 030°45'1 2.1
2018-Jan-20 11:00N 36°44' E 030°46'1 2.1
2018-Jan-20 10:29N 36°43' E 030°46'0 0.5
2018-Jan-20 10:00N 36°43' E 030°46'1 1.4
2018-Jan-20 09:30N 36°44' E 030°46'1 2.1
2018-Jan-20 09:00N 36°44' E 030°45'1 2.3
2018-Jan-20 08:29N 36°45' E 030°44'1 1.8
2018-Jan-20 08:00N 36°46' E 030°44'1 2.3
2018-Jan-20 07:30N 36°47' E 030°45'1 2.3
2018-Jan-20 07:00N 36°47' E 030°46'1 2.2
2018-Jan-20 06:30N 36°48' E 030°47'1 1.6
2018-Jan-20 06:00N 36°48' E 030°47'0 0.1
2018-Jan-20 05:30N 36°48' E 030°47'2 3.2
2018-Jan-20 05:00N 36°49' E 030°49'1 2.4
2018-Jan-20 04:30N 36°49' E 030°50'2 4.4
2018-Jan-20 03:58N 36°48' E 030°48'1 1.5
2018-Jan-20 03:30N 36°49' E 030°48'1 2.4
2018-Jan-20 03:00N 36°49' E 030°50'1 2.5
2018-Jan-20 02:27N 36°49' E 030°52'1 2.3
2018-Jan-20 01:59N 36°49' E 030°53'1 2.4
2018-Jan-20 01:28N 36°49' E 030°54'2 2.4
2018-Jan-20 00:41N 36°49' E 030°57'1 2.5
2018-Jan-20 00:20N 36°49' E 030°58'3 0.5
2018-Jan-19 18:03N 36°49' E 030°54'0 2.6
2018-Jan-19 17:57N 36°49' E 030°53'1 2.6
2018-Jan-19 17:29N 36°49' E 030°52'1 2.5
2018-Jan-19 17:00N 36°49' E 030°50'1 2.6
2018-Jan-19 16:30N 36°49' E 030°49'4 7.3
2018-Jan-19 16:00N 36°48' E 030°44'4 7.8
2018-Jan-19 15:30N 36°49' E 030°39'4 7.3
2018-Jan-19 14:59N 36°48' E 030°35'0 0.0
2018-Jan-19 14:24N 36°48' E 030°35'0 0.0
2018-Jan-19 13:51N 36°48' E 030°35'0 0.0
2018-Jan-19 13:30N 36°48' E 030°35'0 0.0
2018-Jan-19 13:00N 36°48' E 030°35'0 0.0
2018-Jan-19 12:24N 36°48' E 030°35'0 0.0
2018-Jan-19 11:51N 36°48' E 030°35'0 0.0
2018-Jan-19 11:30N 36°48' E 030°35'0 0.0
2018-Jan-19 10:51N 36°48' E 030°35'0 0.0
2018-Jan-19 10:27N 36°48' E 030°35'0 0.0
2018-Jan-19 10:00N 36°48' E 030°35'0 0.0
2018-Jan-19 09:30N 36°48' E 030°35'0 0.0
2018-Jan-19 08:57N 36°48' E 030°35'0 0.0
2018-Jan-19 08:30N 36°48' E 030°35'0 0.0
2018-Jan-19 08:00N 36°48' E 030°35'0 0.0
2018-Jan-19 07:30N 36°48' E 030°35'0 0.0
2018-Jan-19 06:57N 36°48' E 030°35'0 0.0
2018-Jan-19 06:27N 36°48' E 030°35'0 0.0
2018-Jan-19 06:00N 36°48' E 030°35'  

Dump ship's entire track history